Time;durP1;ratioP1;P1;durP2;ratioP2;P2;SDS_P1;SDS_P2;PMS_P1;PMS_P2;Temp;Humidity;BMP_temperature;BMP_pressure;BME280_temperature;BME280_humidity;BME280_pressure;Samples;Min_cycle;Max_cycle;Signal;HPM_P1;HPM_P2
2021/04/22 00:01:53;;;;;;;5.22;1.30;;;;;;;10.41;27.85;101857.53;3587116;40;20063;-72
2021/04/22 00:04:21;;;;;;;5.10;1.90;;;;;;;10.43;27.90;101862.91;3588122;40;20048;-72
2021/04/22 00:06:49;;;;;;;7.25;1.60;;;;;;;10.45;27.82;101866.44;3586774;40;20044;-72
2021/04/22 00:09:18;;;;;;;3.70;1.20;;;;;;;10.46;27.73;101860.81;3586642;40;20048;-72
2021/04/22 00:11:46;;;;;;;4.75;1.58;;;;;;;10.47;27.88;101865.31;3585284;40;20134;-72
2021/04/22 00:14:13;;;;;;;4.22;1.33;;;;;;;10.50;27.82;101866.97;3576031;40;20299;-72
2021/04/22 00:16:41;;;;;;;4.07;1.15;;;;;;;10.49;27.66;101862.47;3586309;40;20040;-72
2021/04/22 00:19:09;;;;;;;3.65;1.20;;;;;;;10.50;27.93;101861.50;3585972;40;20068;-73
2021/04/22 00:21:37;;;;;;;4.32;1.33;;;;;;;10.52;27.86;101862.28;3583132;40;20452;-72
2021/04/22 00:24:05;;;;;;;4.45;1.27;;;;;;;10.52;27.93;101868.63;3586457;40;20116;-72
2021/04/22 00:26:33;;;;;;;5.05;1.20;;;;;;;10.53;27.68;101873.09;3586062;40;20052;-72
2021/04/22 00:29:01;;;;;;;4.72;1.25;;;;;;;10.52;27.98;101875.94;3586525;40;20052;-72
2021/04/22 00:31:29;;;;;;;3.72;1.73;;;;;;;10.52;27.76;101868.63;3586307;40;20051;-72
2021/04/22 00:33:57;;;;;;;4.22;1.83;;;;;;;10.53;27.75;101877.72;3587490;40;20064;-72
2021/04/22 00:36:24;;;;;;;4.55;1.30;;;;;;;10.52;27.63;101875.94;3588061;39;20144;-72
2021/04/22 00:38:52;;;;;;;4.85;1.50;;;;;;;10.51;27.78;101874.19;3586401;40;20106;-71
2021/04/22 00:41:24;;;;;;;;;;;;;;;10.24;28.05;101878.84;3585159;40;20332;-72
2021/04/22 00:43:53;;;;;;;3.60;1.20;;;;;;;10.44;27.64;101890.16;3586877;40;20286;-71
2021/04/22 00:46:21;;;;;;;4.90;1.27;;;;;;;10.43;27.52;101880.22;3586153;40;20126;-72
2021/04/22 00:48:48;;;;;;;5.38;1.40;;;;;;;10.42;27.89;101881.19;3585914;40;20146;-71
2021/04/22 00:51:18;;;;;;;5.35;1.90;;;;;;;10.40;27.67;101888.63;3586168;40;20052;-72
2021/04/22 00:53:46;;;;;;;4.93;1.27;;;;;;;10.39;27.56;101888.72;3584362;40;20048;-71
2021/04/22 00:56:14;;;;;;;4.65;1.60;;;;;;;10.37;27.60;101888.81;3585885;40;20050;-71
2021/04/22 00:58:41;;;;;;;5.25;1.80;;;;;;;10.36;27.57;101888.94;3586570;40;20064;-72
2021/04/22 01:01:10;;;;;;;5.72;1.50;;;;;;;10.35;27.62;101895.41;3586305;40;20051;-72
2021/04/22 01:03:37;;;;;;;5.15;1.80;;;;;;;10.33;27.43;101900.09;3586963;40;20052;-71
2021/04/22 01:06:07;;;;;;;4.95;1.30;;;;;;;10.31;27.60;101907.50;3589229;40;20063;-71
2021/04/22 01:08:35;;;;;;;5.25;1.48;;;;;;;10.28;27.55;101897.69;3584481;40;20057;-73
2021/04/22 01:11:04;;;;;;;5.05;1.33;;;;;;;10.27;27.51;101895.06;3585045;40;20421;-72
2021/04/22 01:13:32;;;;;;;4.80;1.50;;;;;;;10.25;27.66;101897.00;3587217;40;20109;-71
2021/04/22 01:16:00;;;;;;;3.35;1.40;;;;;;;10.23;27.43;101899.84;3585162;40;20056;-72
2021/04/22 01:18:29;;;;;;;5.47;1.58;;;;;;;10.23;27.70;101897.09;3577380;40;20626;-71
2021/04/22 01:21:00;;;;;;;4.72;1.75;;;;;;;10.21;27.79;101895.44;3585752;40;20068;-71
2021/04/22 01:23:30;;;;;;;4.72;1.63;;;;;;;10.19;27.88;101895.56;3584765;40;20055;-72
2021/04/22 01:25:58;;;;;;;5.05;1.50;;;;;;;10.18;27.81;101891.09;3588924;40;20330;-72
2021/04/22 01:28:27;;;;;;;7.65;1.75;;;;;;;10.17;27.79;101896.66;3589279;40;20040;-72
2021/04/22 01:30:56;;;;;;;5.95;1.58;;;;;;;10.17;27.92;101897.53;3587096;40;20052;-72
2021/04/22 01:33:25;;;;;;;6.15;1.50;;;;;;;10.15;27.83;101900.38;3584976;40;20055;-72
2021/04/22 01:35:57;;;;;;;6.03;1.70;;;;;;;10.15;27.98;101902.22;3587599;40;20056;-72
2021/04/22 01:38:26;;;;;;;4.97;1.38;;;;;;;10.14;27.85;101909.53;3586172;40;20060;-72
2021/04/22 01:40:55;;;;;;;4.68;1.50;;;;;;;10.14;27.94;101904.06;3586396;40;20093;-72
2021/04/22 01:43:23;;;;;;;5.50;1.60;;;;;;;10.10;27.88;101910.75;3587687;40;20064;-73
2021/04/22 01:45:50;;;;;;;6.47;1.90;;;;;;;10.10;28.27;101912.59;3587607;40;20067;-72
2021/04/22 01:48:17;;;;;;;3.50;1.52;;;;;;;10.09;27.95;101911.72;3587044;40;20041;-72
2021/04/22 01:50:45;;;;;;;6.05;2.30;;;;;;;10.08;27.92;101918.16;3587025;40;20051;-72
2021/04/22 01:53:13;;;;;;;5.22;1.48;;;;;;;10.08;27.98;101915.44;3587210;40;20393;-72
2021/04/22 01:55:42;;;;;;;5.15;1.65;;;;;;;10.07;27.97;101919.16;3586271;40;20520;-72
2021/04/22 01:58:13;;;;;;;6.82;1.70;;;;;;;10.06;27.96;101908.31;3587777;40;20064;-72
2021/04/22 02:00:42;;;;;;;7.47;1.30;;;;;;;10.05;28.23;101917.47;3587543;40;20048;-72
2021/04/22 02:03:10;;;;;;;3.42;1.75;;;;;;;10.01;28.07;101916.84;3585056;40;20061;-72
2021/04/22 02:05:39;;;;;;;4.07;1.30;;;;;;;10.00;28.00;101920.53;3585710;40;20048;-72
2021/04/22 02:08:07;;;;;;;5.32;1.23;;;;;;;10.00;28.08;101925.13;3586811;40;20443;-72
2021/04/22 02:10:35;;;;;;;5.47;1.60;;;;;;;9.97;28.17;101919.84;3587171;40;20045;-72
2021/04/22 02:13:03;;;;;;;2.75;1.25;;;;;;;9.96;28.14;101927.19;3587826;40;20059;-73
2021/04/22 02:15:34;;;;;;;3.92;1.20;;;;;;;9.97;28.08;101930.78;3586861;40;20045;-72
2021/04/22 02:18:02;;;;;;;5.45;1.95;;;;;;;9.93;28.23;101934.72;3585973;40;20032;-73
2021/04/22 02:20:30;;;;;;;4.50;1.60;;;;;;;9.92;28.17;101933.84;3587438;40;20065;-72
2021/04/22 02:22:58;;;;;;;3.97;1.20;;;;;;;9.91;28.22;101943.03;3585672;40;20052;-75
2021/04/22 02:25:27;;;;;;;5.97;1.60;;;;;;;9.89;28.10;101941.34;3587771;40;20060;-72
2021/04/22 02:27:57;;;;;;;4.93;1.55;;;;;;;9.87;28.30;101943.34;3586894;40;20068;-72
2021/04/22 02:30:27;;;;;;;6.22;1.40;;;;;;;9.84;28.19;101936.22;3584834;40;20051;-72
2021/04/22 02:32:56;;;;;;;8.82;1.90;;;;;;;9.81;27.88;101954.66;3586748;40;20071;-72
2021/04/22 02:35:25;;;;;;;5.15;1.70;;;;;;;9.79;28.26;101945.69;3586596;40;20068;-72
2021/04/22 02:37:53;;;;;;;5.43;1.73;;;;;;;9.74;28.13;101949.59;3584807;40;20525;-72
2021/04/22 02:40:24;;;;;;;4.22;1.60;;;;;;;9.74;28.24;101962.38;3586454;40;20047;-73
2021/04/22 02:42:52;;;;;;;4.30;1.55;;;;;;;9.71;28.41;101966.19;3587697;40;20161;-73
2021/04/22 02:45:23;;;;;;;6.00;2.13;;;;;;;9.70;28.41;101961.72;3587534;40;20049;-73
2021/04/22 02:47:50;;;;;;;7.20;1.70;;;;;;;9.66;28.51;101957.38;3587656;40;20045;-73
2021/04/22 02:50:21;;;;;;;4.57;1.55;;;;;;;9.66;28.34;101965.59;3585203;40;20052;-73
2021/04/22 02:52:48;;;;;;;4.65;1.60;;;;;;;9.63;28.58;101959.47;3586067;40;20080;-73
2021/04/22 02:55:16;;;;;;;3.85;1.42;;;;;;;9.62;28.59;101965.91;3587442;40;20056;-72
2021/04/22 02:58:04;;;;;;;3.45;1.15;;;;;;;9.59;28.28;101963.34;3584739;40;20051;-73
2021/04/22 03:00:32;;;;;;;5.15;1.60;;;;;;;9.58;28.62;101957.00;3586441;40;20068;-73
2021/04/22 03:03:00;;;;;;;6.90;1.73;;;;;;;9.56;28.48;101950.75;3585537;40;20384;-73
2021/04/22 03:05:28;;;;;;;4.95;1.48;;;;;;;9.56;28.39;101958.94;3585482;40;20067;-73
2021/04/22 03:07:56;;;;;;;4.13;1.48;;;;;;;9.54;28.40;101960.06;3586615;40;20040;-73
2021/04/22 03:10:24;;;;;;;7.75;1.73;;;;;;;9.53;28.75;101958.28;3586778;40;20052;-73
2021/04/22 03:12:52;;;;;;;4.40;1.55;;;;;;;9.50;28.58;101959.34;3586789;40;20051;-73
2021/04/22 03:15:20;;;;;;;5.80;1.70;;;;;;;9.49;28.60;101962.19;3586948;40;20076;-73
2021/04/22 03:17:48;;;;;;;6.07;1.70;;;;;;;9.47;28.67;101964.13;3586693;40;20037;-72
2021/04/22 03:20:19;;;;;;;6.72;1.58;;;;;;;9.46;28.58;101976.06;3586912;40;20048;-72
2021/04/22 03:27:45;;;;;;;3.88;1.75;;;;;;;9.33;28.71;101971.34;3533452;40;20074;-72
2021/04/22 03:30:15;;;;;;;4.95;1.58;;;;;;;9.35;28.60;101983.06;3534285;40;20129;-72
2021/04/22 03:32:43;;;;;;;4.18;1.50;;;;;;;9.31;28.73;101972.41;3522720;40;20157;-72
2021/04/22 03:35:12;;;;;;;5.13;1.80;;;;;;;9.32;28.71;101985.09;3530627;40;20432;-72
2021/04/22 03:37:41;;;;;;;3.92;1.58;;;;;;;9.29;28.87;101975.28;3525057;40;20047;-72
2021/04/22 03:40:12;;;;;;;6.57;1.98;;;;;;;9.29;28.76;101982.59;3526390;40;20043;-72
2021/04/22 03:42:39;;;;;;;4.25;1.70;;;;;;;9.25;28.81;101976.44;3532595;40;20046;-72
2021/04/22 03:45:10;;;;;;;5.28;1.70;;;;;;;9.24;28.88;101973.78;3531896;40;20059;-72
2021/04/22 03:47:37;;;;;;;6.55;1.77;;;;;;;9.21;28.73;101987.66;3532876;40;20331;-72
2021/04/22 03:50:05;;;;;;;5.80;1.70;;;;;;;9.19;28.97;101985.00;3532548;40;20091;-73
2021/04/22 03:52:33;;;;;;;4.95;1.65;;;;;;;9.18;28.92;101985.09;3533996;40;20190;-72
2021/04/22 03:55:01;;;;;;;6.57;1.73;;;;;;;9.16;29.05;101978.84;3551839;40;20059;-71
2021/04/22 03:57:29;;;;;;;7.38;2.20;;;;;;;9.15;29.00;101983.44;3564366;40;20384;-72
2021/04/22 03:59:56;;;;;;;6.72;1.75;;;;;;;9.14;29.18;101987.13;3562117;40;20060;-72
2021/04/22 04:02:24;;;;;;;5.97;1.77;;;;;;;9.14;29.03;101983.53;3573064;40;20154;-72
2021/04/22 04:04:52;;;;;;;8.20;1.85;;;;;;;9.11;29.07;101986.47;3586973;40;20551;-73
2021/04/22 04:07:19;;;;;;;6.18;1.80;;;;;;;9.10;29.45;101988.31;3587608;40;20048;-72
2021/04/22 04:09:47;;;;;;;5.70;1.63;;;;;;;9.09;29.18;101986.56;3586336;40;20084;-72
2021/04/22 04:12:15;;;;;;;4.57;1.90;;;;;;;9.09;29.39;101996.59;3586140;40;20041;-72
2021/04/22 04:14:42;;;;;;;6.07;1.80;;;;;;;9.07;29.30;101984.88;3587177;40;20107;-72
2021/04/22 04:17:10;;;;;;;5.03;1.92;;;;;;;9.06;29.14;101985.84;3585816;40;20055;-72
2021/04/22 04:19:38;;;;;;;6.75;1.75;;;;;;;9.05;29.02;101989.59;3587465;40;20080;-72
2021/04/22 04:22:05;;;;;;;7.65;2.15;;;;;;;9.04;29.22;101991.44;3583451;40;20056;-72
2021/04/22 04:24:33;;;;;;;5.43;1.70;;;;;;;9.03;29.45;101984.22;3585565;40;20401;-72
2021/04/22 04:27:00;;;;;;;6.28;1.80;;;;;;;9.01;29.31;101992.50;3588144;40;20047;-72
2021/04/22 04:29:28;;;;;;;4.82;1.85;;;;;;;9.00;29.45;101990.72;3580093;40;20291;-72
2021/04/22 04:31:55;;;;;;;5.45;1.73;;;;;;;8.98;29.19;101994.53;3585918;40;20056;-72
2021/04/22 04:34:22;;;;;;;10.30;2.28;;;;;;;8.97;29.06;101998.25;3585507;40;20414;-72
2021/04/22 04:36:51;;;;;;;7.45;2.03;;;;;;;8.96;29.24;101994.66;3587944;40;20317;-72
2021/04/22 04:39:21;;;;;;;5.80;2.10;;;;;;;8.93;29.24;101994.81;3587776;40;20072;-71
2021/04/22 04:41:48;;;;;;;7.45;2.70;;;;;;;8.91;29.22;101995.88;3587824;40;20056;-71
2021/04/22 04:44:18;;;;;;;6.00;2.08;;;;;;;8.89;29.29;102003.25;3586259;40;20160;-71
2021/04/22 04:46:46;;;;;;;7.88;2.40;;;;;;;8.86;29.43;102007.09;3582285;40;20061;-71
2021/04/22 04:49:13;;;;;;;6.18;1.92;;;;;;;8.85;29.58;102007.16;3586301;40;20062;-70
2021/04/22 04:51:41;;;;;;;7.25;2.10;;;;;;;8.84;29.20;102005.41;3585195;40;20048;-72
2021/04/22 04:54:09;;;;;;;8.07;2.53;;;;;;;8.83;29.49;102009.09;3575517;40;20052;-72
2021/04/22 04:56:37;;;;;;;6.97;2.20;;;;;;;8.81;29.59;102003.75;3583207;40;20045;-71
2021/04/22 04:59:04;;;;;;;8.38;2.60;;;;;;;8.80;29.38;102023.84;3586387;40;20052;-72
2021/04/22 05:01:32;;;;;;;8.90;2.70;;;;;;;8.79;29.56;102024.81;3572686;40;20115;-72
2021/04/22 05:04:00;;;;;;;5.22;2.13;;;;;;;8.78;29.43;102025.78;3586782;40;20044;-72
2021/04/22 05:06:28;;;;;;;5.47;2.15;;;;;;;8.78;29.72;102028.50;3583376;40;20045;-72
2021/04/22 05:08:55;;;;;;;6.82;2.40;;;;;;;8.79;29.85;102029.38;3583075;40;20056;-72
2021/04/22 05:11:23;;;;;;;6.18;2.30;;;;;;;8.80;29.92;102033.88;3586561;40;20056;-73
2021/04/22 05:13:50;;;;;;;6.28;2.25;;;;;;;8.79;29.75;102030.25;3587657;40;20069;-72
2021/04/22 05:16:18;;;;;;;7.97;2.50;;;;;;;8.81;29.79;102032.88;3584183;40;20068;-72
2021/04/22 05:18:48;;;;;;;7.28;2.33;;;;;;;8.81;29.83;102030.13;3585865;40;20101;-72
2021/04/22 05:21:15;;;;;;;6.20;2.22;;;;;;;8.82;30.00;102031.91;3584202;40;20346;-71
2021/04/22 05:23:43;;;;;;;9.82;2.33;;;;;;;8.83;30.00;102036.41;3584556;40;20088;-71
2021/04/22 05:26:11;;;;;;;7.40;2.53;;;;;;;8.86;30.02;102037.09;3587132;40;20060;-72
2021/04/22 05:28:39;;;;;;;7.28;2.30;;;;;;;8.88;30.20;102043.34;3584166;40;20067;-71
2021/04/22 05:31:07;;;;;;;7.45;2.30;;;;;;;8.89;30.16;102039.63;3584581;40;20060;-71
2021/04/22 05:33:35;;;;;;;6.47;2.85;;;;;;;8.93;30.10;102053.97;3586634;40;20049;-71
2021/04/22 05:36:05;;;;;;;6.53;2.25;;;;;;;8.97;30.01;102052.84;3586803;40;20063;-72
2021/04/22 05:38:33;;;;;;;8.30;2.90;;;;;;;8.96;29.59;102048.34;3586449;40;20056;-72
2021/04/22 05:41:01;;;;;;;8.20;2.47;;;;;;;8.98;29.99;102054.56;3584443;40;20068;-71
2021/04/22 05:43:29;;;;;;;9.27;2.60;;;;;;;8.97;29.78;102050.09;3586887;40;20116;-71
2021/04/22 05:45:58;;;;;;;6.40;2.63;;;;;;;8.98;29.96;102055.44;3589284;40;20059;-71
2021/04/22 05:48:25;;;;;;;7.55;2.80;;;;;;;8.96;29.72;102059.25;3584602;40;20666;-72
2021/04/22 05:50:53;;;;;;;7.03;2.35;;;;;;;8.97;29.92;102066.47;3579573;40;20056;-71
2021/04/22 05:53:21;;;;;;;6.78;2.83;;;;;;;8.95;29.87;102076.59;3585223;40;20068;-73
2021/04/22 05:55:48;;;;;;;8.70;2.67;;;;;;;8.93;29.88;102065.78;3587302;40;20075;-74
2021/04/22 05:58:16;;;;;;;10.30;3.42;;;;;;;8.91;30.22;102070.44;3587284;40;20075;-74
2021/04/22 06:00:44;;;;;;;9.35;3.00;;;;;;;8.89;30.24;102071.50;3586512;40;20232;-73
2021/04/22 06:03:12;;;;;;;9.85;3.42;;;;;;;8.87;30.00;102070.72;3589681;40;20329;-73
2021/04/22 06:05:40;;;;;;;7.43;2.70;;;;;;;8.84;29.97;102076.34;3590155;40;20056;-72
2021/04/22 06:08:11;;;;;;;7.10;2.60;;;;;;;8.82;30.16;102086.47;3586706;40;20048;-72
2021/04/22 06:10:39;;;;;;;6.75;2.42;;;;;;;8.80;30.24;102080.25;3585659;40;20122;-72
2021/04/22 06:13:08;;;;;;;8.88;3.03;;;;;;;8.80;30.39;102083.88;3583344;40;20056;-72
2021/04/22 06:15:36;;;;;;;9.10;2.90;;;;;;;8.80;30.47;102081.13;3588202;40;20043;-73
2021/04/22 06:18:05;;;;;;;8.85;2.75;;;;;;;8.83;30.37;102085.50;3585549;40;20087;-73
2021/04/22 06:20:33;;;;;;;8.35;2.80;;;;;;;8.85;30.52;102092.63;3587894;40;20081;-74
2021/04/22 06:23:21;;;;;;;7.18;2.90;;;;;;;8.86;30.59;102101.72;3586262;40;20118;-74
2021/04/22 06:25:48;;;;;;;7.65;3.13;;;;;;;8.89;30.36;102099.66;3589049;40;20051;-74
2021/04/22 06:28:15;;;;;;;8.77;3.45;;;;;;;8.92;30.25;102110.41;3589103;40;20118;-73
2021/04/22 06:30:43;;;;;;;6.93;2.60;;;;;;;8.96;30.37;102112.00;3587633;40;20075;-72
2021/04/22 06:33:10;;;;;;;9.38;2.90;;;;;;;8.98;30.40;102115.47;3587466;40;20549;-73
2021/04/22 06:35:40;;;;;;;6.97;2.80;;;;;;;9.01;30.42;102117.16;3591037;40;20060;-73
2021/04/22 06:38:08;;;;;;;9.82;2.83;;;;;;;9.03;30.42;102114.34;3586611;40;20055;-71
2021/04/22 06:40:37;;;;;;;9.32;3.13;;;;;;;9.06;30.37;102116.88;3591469;40;20429;-74
2021/04/22 06:43:12;;;;;;;6.15;2.45;;;;;;;9.09;30.19;102116.69;3579269;40;20126;-72
2021/04/22 06:45:42;;;;;;;7.88;2.78;;;;;;;9.11;30.18;102126.56;3590008;40;20053;-72
2021/04/22 06:48:19;;;;;;;7.45;3.03;;;;;;;9.16;30.19;102129.00;3586988;40;20060;-73
2021/04/22 06:50:51;;;;;;;10.38;2.90;;;;;;;9.15;30.26;102132.69;3590282;40;20051;-73
2021/04/22 06:53:18;;;;;;;8.02;2.92;;;;;;;9.17;30.19;102137.09;3587751;40;20060;-72
2021/04/22 06:55:47;;;;;;;9.93;2.78;;;;;;;9.20;30.42;102136.94;3584231;40;20109;-74
2021/04/22 06:58:15;;;;;;;10.50;3.17;;;;;;;9.22;30.36;102139.53;3588257;40;20064;-74
2021/04/22 07:00:43;;;;;;;7.28;2.92;;;;;;;9.25;30.35;102137.53;3591886;40;20128;-73
2021/04/22 07:03:11;;;;;;;7.20;2.80;;;;;;;9.28;30.34;102142.81;3584403;40;20056;-72
2021/04/22 07:05:39;;;;;;;8.82;2.70;;;;;;;9.33;30.39;102147.97;3583331;40;20062;-71
2021/04/22 07:08:08;;;;;;;6.82;2.78;;;;;;;9.37;30.31;102146.84;3585011;40;20051;-72
2021/04/22 07:10:37;;;;;;;8.32;2.67;;;;;;;9.39;30.10;102145.75;3581261;40;20075;-72
2021/04/22 07:13:06;;;;;;;8.38;2.78;;;;;;;9.43;30.07;102145.56;3583861;40;20048;-72
2021/04/22 07:15:34;;;;;;;8.43;2.67;;;;;;;9.45;30.21;102147.25;3585364;40;20051;-72
2021/04/22 07:18:02;;;;;;;4.45;2.13;;;;;;;9.49;30.04;102148.78;3586123;40;20047;-72
2021/04/22 07:20:30;;;;;;;5.75;2.55;;;;;;;9.53;30.04;102155.84;3585153;40;20048;-71
2021/04/22 07:23:01;;;;;;;5.85;2.38;;;;;;;9.56;29.88;102157.50;3585739;40;20100;-72
2021/04/22 07:25:32;;;;;;;6.97;2.40;;;;;;;9.59;29.76;102152.72;3585726;40;20071;-72
2021/04/22 07:28:03;;;;;;;7.95;2.53;;;;;;;9.60;29.67;102162.69;3579496;40;20399;-72
2021/04/22 07:30:38;;;;;;;6.00;2.20;;;;;;;9.60;29.58;102165.41;3582932;40;20057;-74
2021/04/22 07:33:07;;;;;;;6.07;2.35;;;;;;;9.65;29.78;102163.28;3583803;40;20057;-73
2021/04/22 07:35:35;;;;;;;6.75;2.30;;;;;;;9.66;29.73;102165.03;3586343;40;20431;-74
2021/04/22 07:38:03;;;;;;;5.80;2.10;;;;;;;9.72;29.76;102169.25;3588454;40;20113;-74
2021/04/22 07:40:34;;;;;;;6.65;2.25;;;;;;;9.76;29.61;102176.31;3581776;40;20054;-74
2021/04/22 07:43:01;;;;;;;6.82;2.35;;;;;;;9.79;29.47;102169.78;3587640;40;20067;-74
2021/04/22 07:45:33;;;;;;;8.98;2.13;;;;;;;9.87;29.42;102175.66;3588466;40;20052;-74
2021/04/22 07:48:02;;;;;;;6.78;2.20;;;;;;;9.92;29.55;102177.09;3588480;40;20052;-73
2021/04/22 07:50:31;;;;;;;6.38;2.13;;;;;;;10.00;29.58;102173.88;3587781;40;20055;-74
2021/04/22 07:52:59;;;;;;;6.97;2.30;;;;;;;10.07;29.65;102178.00;3584704;40;20049;-73
2021/04/22 07:55:32;;;;;;;3.70;2.03;;;;;;;10.17;29.58;102178.28;3586911;40;20056;-73
2021/04/22 07:58:02;;;;;;;6.40;2.10;;;;;;;10.25;29.56;102174.09;3587401;40;20129;-74
2021/04/22 08:00:31;;;;;;;6.00;1.60;;;;;;;10.37;29.52;102181.47;3587801;40;20309;-73
2021/04/22 08:02:59;;;;;;;5.10;2.08;;;;;;;10.44;29.34;102180.13;3588307;40;20048;-74
2021/04/22 08:05:30;;;;;;;5.00;1.90;;;;;;;10.58;29.15;102179.22;3581618;40;20041;-74
2021/04/22 08:08:06;;;;;;;6.05;1.98;;;;;;;10.68;29.13;102184.97;3587224;40;20397;-74
2021/04/22 08:10:35;;;;;;;4.22;1.98;;;;;;;10.75;28.85;102180.84;3582027;40;20476;-74
2021/04/22 08:13:04;;;;;;;4.25;1.80;;;;;;;10.87;28.54;102178.19;3588197;40;20141;-74
2021/04/22 08:15:34;;;;;;;4.88;1.80;;;;;;;10.96;28.43;102182.19;3587899;40;20045;-73
2021/04/22 08:18:03;;;;;;;5.15;1.80;;;;;;;11.04;28.10;102187.13;3588494;40;20118;-74
2021/04/22 08:20:34;;;;;;;7.82;2.45;;;;;;;11.07;28.09;102190.56;3580511;40;20069;-73
2021/04/22 08:23:04;;;;;;;4.90;1.77;;;;;;;11.13;27.77;102195.63;3586481;40;20060;-74
2021/04/22 08:25:35;;;;;;;6.30;1.85;;;;;;;11.17;27.71;102188.09;3587848;40;20048;-73
2021/04/22 08:28:06;;;;;;;4.68;1.63;;;;;;;11.19;27.57;102178.78;3587357;40;20074;-73
2021/04/22 08:30:38;;;;;;;5.90;2.20;;;;;;;11.21;27.55;102173.19;3587314;40;20460;-74
2021/04/22 08:33:06;;;;;;;4.10;1.60;;;;;;;11.21;27.77;102173.19;3584318;40;20051;-73
2021/04/22 08:35:34;;;;;;;4.28;1.70;;;;;;;11.22;27.57;102177.69;3583098;40;20048;-73
2021/04/22 08:38:01;;;;;;;6.05;1.85;;;;;;;11.22;27.48;102174.94;3587313;40;20052;-74
2021/04/22 08:40:29;;;;;;;3.58;1.38;;;;;;;11.23;27.46;102171.22;3583113;40;20351;-74
2021/04/22 08:42:57;;;;;;;5.95;2.15;;;;;;;11.23;27.67;102169.38;3587986;40;20142;-74
2021/04/22 08:45:26;;;;;;;4.70;1.80;;;;;;;11.27;27.62;102170.94;3583658;40;20378;-74
2021/04/22 08:47:53;;;;;;;4.47;2.17;;;;;;;11.31;27.80;102168.84;3588234;40;20481;-74
2021/04/22 08:50:23;;;;;;;5.57;1.83;;;;;;;11.36;27.44;102166.66;3583761;40;20057;-74
2021/04/22 08:52:54;;;;;;;4.82;1.83;;;;;;;11.42;27.60;102166.25;3585209;40;20061;-74
2021/04/22 08:55:24;;;;;;;4.68;1.67;;;;;;;11.50;27.68;102173.94;3587739;40;20052;-74
2021/04/22 08:57:52;;;;;;;5.60;1.98;;;;;;;11.56;27.62;102166.16;3588442;40;20063;-74
2021/04/22 09:00:25;;;;;;;4.95;1.95;;;;;;;11.67;27.18;102170.91;3588413;40;20312;-75
2021/04/22 09:02:53;;;;;;;4.65;1.70;;;;;;;11.72;27.49;102156.84;3587908;40;20070;-74
2021/04/22 09:05:22;;;;;;;5.10;1.63;;;;;;;11.81;27.21;102173.53;3587163;40;20049;-74
2021/04/22 09:07:51;;;;;;;5.30;1.60;;;;;;;11.90;27.31;102180.22;3589491;40;20054;-74
2021/04/22 09:10:21;;;;;;;5.00;1.48;;;;;;;11.99;27.10;102185.09;3586534;40;20048;-74
2021/04/22 09:12:56;;;;;;;4.97;2.30;;;;;;;12.02;25.74;102179.38;3585994;40;20065;-73
2021/04/22 09:15:24;;;;;;;4.20;1.60;;;;;;;12.08;27.19;102181.69;3586845;40;20067;-70
2021/04/22 09:18:04;;;;;;;6.45;1.98;;;;;;;12.19;26.77;102179.03;3585340;40;20405;-69
2021/04/22 09:20:36;;;;;;;3.72;1.50;;;;;;;12.23;27.23;102187.94;3583428;40;20051;-69
2021/04/22 09:23:14;;;;;;;3.97;1.60;;;;;;;12.30;26.60;102179.16;3582906;40;20056;-69
2021/04/22 09:25:41;;;;;;;5.10;1.80;;;;;;;12.35;27.17;102179.69;3587076;40;20085;-69
2021/04/22 09:28:10;;;;;;;4.38;1.90;;;;;;;12.43;26.67;102167.28;3583553;40;20076;-69
2021/04/22 09:30:41;;;;;;;6.43;1.80;;;;;;;12.52;26.58;102174.81;3572567;40;20052;-69
2021/04/22 09:33:21;;;;;;;4.22;2.00;;;;;;;12.59;25.92;102171.53;3578228;40;20051;-74
2021/04/22 09:35:50;;;;;;;6.10;1.83;;;;;;;12.61;26.03;102175.00;3584645;40;20054;-74
2021/04/22 09:38:18;;;;;;;5.75;2.08;;;;;;;12.69;26.33;102174.44;3577556;40;20420;-76
2021/04/22 09:40:52;;;;;;;4.47;1.77;;;;;;;12.73;25.84;102170.50;3588189;40;20036;-76
2021/04/22 09:43:19;;;;;;;4.35;2.15;;;;;;;12.73;25.70;102170.50;3585587;40;20057;-73
2021/04/22 09:45:51;;;;;;;5.13;1.90;;;;;;;12.78;25.82;102165.53;3586426;40;20025;-74
2021/04/22 09:48:26;;;;;;;5.20;2.00;;;;;;;12.82;25.34;102167.06;3588088;40;20464;-77
2021/04/22 09:50:54;;;;;;;4.15;1.75;;;;;;;12.84;25.67;102170.56;3586535;40;20055;-76
2021/04/22 09:53:26;;;;;;;5.47;1.85;;;;;;;12.89;24.90;102171.09;3587897;40;20059;-73
2021/04/22 09:55:58;;;;;;;4.32;1.55;;;;;;;12.88;25.53;102166.59;3585808;40;20044;-77
2021/04/22 09:58:28;;;;;;;4.65;1.90;;;;;;;12.93;25.46;102169.00;3587802;40;20028;-75
2021/04/22 10:00:56;;;;;;;4.07;1.52;;;;;;;13.00;25.61;102162.09;3586725;40;20127;-74
2021/04/22 10:03:24;;;;;;;5.22;1.70;;;;;;;13.06;25.65;102158.88;3587169;40;20060;-74
2021/04/22 10:05:58;;;;;;;3.97;1.67;;;;;;;13.11;25.40;102153.88;3585925;40;20048;-74
2021/04/22 10:08:26;;;;;;;4.85;1.65;;;;;;;13.15;25.56;102156.28;3587742;40;20048;-73
2021/04/22 10:10:59;;;;;;;4.20;1.90;;;;;;;13.24;24.84;102151.09;3588036;40;20398;-74
2021/04/22 10:13:28;;;;;;;5.18;1.83;;;;;;;13.27;25.13;102153.56;3588381;40;20052;-75
2021/04/22 10:15:57;;;;;;;3.65;1.58;;;;;;;13.32;25.00;102165.09;3586351;40;20063;-74
2021/04/22 10:18:35;;;;;;;4.45;1.63;;;;;;;13.38;23.92;102160.00;3587086;40;20161;-73
2021/04/22 10:21:04;;;;;;;6.07;2.00;;;;;;;13.39;25.04;102158.13;3583075;40;20400;-74
2021/04/22 10:23:32;;;;;;;5.25;1.80;;;;;;;13.45;24.56;102158.53;3582174;40;20055;-76
2021/04/22 10:26:00;;;;;;;5.80;1.90;;;;;;;13.50;25.03;102158.19;3588906;40;20405;-76
2021/04/22 10:28:29;;;;;;;8.27;2.10;;;;;;;13.58;24.92;102152.09;3578949;40;20060;-75
2021/04/22 10:30:58;;;;;;;5.43;1.88;;;;;;;13.64;25.29;102163.47;3586823;40;20052;-74
2021/04/22 10:33:26;;;;;;;4.85;2.25;;;;;;;13.71;25.18;102150.09;3586785;40;20076;-73
2021/04/22 10:35:59;;;;;;;5.07;2.33;;;;;;;13.80;24.10;102150.25;3587488;40;20052;-72
2021/04/22 10:38:27;;;;;;;6.60;2.30;;;;;;;13.86;25.13;102151.63;3578693;40;20056;-74
2021/04/22 10:40:58;;;;;;;6.28;2.40;;;;;;;13.93;24.65;102153.78;3588026;40;20048;-74
2021/04/22 10:43:28;;;;;;;7.25;2.72;;;;;;;14.03;24.59;102155.81;3588652;40;20055;-74
2021/04/22 10:45:57;;;;;;;4.28;2.35;;;;;;;14.09;24.65;102156.19;3586740;40;20309;-74
2021/04/22 10:48:25;;;;;;;5.57;2.63;;;;;;;14.16;24.63;102151.09;3586549;40;20063;-74
2021/04/22 10:50:54;;;;;;;5.85;2.70;;;;;;;14.26;24.21;102157.56;3586216;40;20044;-74
2021/04/22 10:53:24;;;;;;;6.20;2.65;;;;;;;14.32;24.43;102138.66;3587600;40;20032;-74
2021/04/22 10:55:54;;;;;;;5.90;2.80;;;;;;;14.39;24.63;102149.19;3584917;40;20129;-75
2021/04/22 10:58:24;;;;;;;5.53;3.03;;;;;;;14.43;24.41;102148.81;3588395;40;20092;-75
2021/04/22 11:00:54;;;;;;;7.13;3.47;;;;;;;14.48;24.09;102142.94;3584345;40;20060;-74
2021/04/22 11:03:30;;;;;;;6.65;3.53;;;;;;;14.52;23.14;102150.81;3586912;40;20313;-76
2021/04/22 11:05:58;;;;;;;8.65;3.50;;;;;;;14.53;23.87;102158.06;3584366;40;20053;-73
2021/04/22 11:08:40;;;;;;;6.60;3.10;;;;;;;14.58;23.34;102141.16;3585290;40;20050;-74
2021/04/22 11:11:16;;;;;;;;;;;;;;;14.28;23.81;102150.94;3586711;40;20088;-74
2021/04/22 11:13:44;;;;;;;5.68;2.60;;;;;;;14.56;24.12;102146.81;3588069;40;20218;-78
2021/04/22 11:16:13;;;;;;;6.35;2.95;;;;;;;14.62;24.05;102151.78;3586436;40;20051;-76
2021/04/22 11:18:43;;;;;;;4.85;3.05;;;;;;;14.68;23.85;102151.28;3586878;40;20044;-73
2021/04/22 11:21:24;;;;;;;7.43;2.95;;;;;;;14.72;22.97;102149.16;3583141;40;20080;-76
2021/04/22 11:23:53;;;;;;;5.88;3.17;;;;;;;14.69;23.17;102141.13;3586351;40;20390;-74
2021/04/22 11:26:24;;;;;;;6.75;3.22;;;;;;;14.71;23.16;102141.00;3586820;40;20064;-77
2021/04/22 11:28:54;;;;;;;6.13;3.10;;;;;;;14.72;23.64;102149.16;3586611;40;20052;-75
2021/04/22 11:31:24;;;;;;;6.40;2.65;;;;;;;14.70;23.27;102145.66;3582985;40;20116;-75
2021/04/22 11:34:04;;;;;;;6.30;2.88;;;;;;;14.73;23.02;102137.13;3587107;40;20048;-75
2021/04/22 11:36:32;;;;;;;5.18;2.65;;;;;;;14.72;23.44;102135.38;3586246;40;20044;-76
2021/04/22 11:39:06;;;;;;;4.70;2.17;;;;;;;14.79;22.93;102133.91;3585933;40;20048;-78
2021/04/22 11:41:35;;;;;;;6.18;2.90;;;;;;;14.80;23.49;102143.03;3585661;40;20298;-75
2021/04/22 11:44:06;;;;;;;4.93;2.45;;;;;;;14.84;23.08;102144.50;3583989;40;20088;-73